Time;durP1;ratioP1;P1;durP2;ratioP2;P2;SDS_P1;SDS_P2;PMS_P1;PMS_P2;Temp;Humidity;BMP_temperature;BMP_pressure;BME280_temperature;BME280_humidity;BME280_pressure;Samples;Min_cycle;Max_cycle;Signal;HPM_P1;HPM_P2
2022/08/19 00:01:12;;;;;;;;;;;16.10;99.90;;;;;;5102347;28;19919;-76
2022/08/19 00:03:37;;;;;;;;;;;16.10;99.90;;;;;;5111280;28;19994;-78
2022/08/19 00:06:03;;;;;;;;;;;16.00;99.90;;;;;;5093466;28;19970;-76
2022/08/19 00:08:29;;;;;;;;;;;16.00;99.90;;;;;;5094380;28;19927;-76
2022/08/19 00:10:54;;;;;;;;;;;16.00;99.90;;;;;;5086721;28;19927;-77
2022/08/19 00:13:20;;;;;;;;;;;16.00;99.90;;;;;;5091972;28;19920;-76
2022/08/19 00:15:45;;;;;;;;;;;16.00;99.90;;;;;;5076181;28;20029;-76
2022/08/19 00:18:11;;;;;;;;;;;16.00;99.90;;;;;;5095283;28;20371;-76
2022/08/19 00:20:40;;;;;;;;;;;16.00;99.90;;;;;;5130149;27;19927;-76
2022/08/19 00:23:06;;;;;;;;;;;16.00;99.90;;;;;;5110801;28;19969;-76
2022/08/19 00:25:32;;;;;;;;;;;16.00;99.90;;;;;;5108243;28;19993;-76
2022/08/19 00:27:58;;;;;;;;;;;16.00;99.90;;;;;;5111198;28;20390;-77
2022/08/19 00:30:24;;;;;;;;;;;16.00;99.90;;;;;;5100562;28;20001;-76
2022/08/19 00:32:50;;;;;;;;;;;16.00;99.90;;;;;;5096527;28;19924;-76
2022/08/19 00:35:17;;;;;;;;;;;15.90;99.90;;;;;;5097050;28;19924;-77
2022/08/19 00:37:43;;;;;;;;;;;15.90;99.90;;;;;;5083671;28;19920;-76
2022/08/19 00:40:10;;;;;;;;;;;15.80;99.90;;;;;;5098152;28;19942;-76
2022/08/19 00:42:35;;;;;;;;;;;15.90;99.90;;;;;;5130117;27;19920;-76
2022/08/19 00:45:01;;;;;;;;;;;15.80;99.90;;;;;;5112268;28;20283;-76
2022/08/19 00:47:26;;;;;;;;;;;15.80;99.90;;;;;;5109858;28;19924;-77
2022/08/19 00:49:55;;;;;;;;;;;15.80;99.90;;;;;;5135508;27;19920;-76
2022/08/19 00:52:26;;;;;;;;;;;15.80;99.90;;;;;;5101150;28;19947;-76
2022/08/19 00:54:53;;;;;;;;;;;15.70;99.90;;;;;;5105090;28;20144;-76
2022/08/19 00:57:21;;;;;;;;;;;15.70;99.90;;;;;;5103862;28;19930;-76
2022/08/19 00:59:52;;;;;;;;;;;15.70;99.90;;;;;;5093487;28;19920;-81
2022/08/19 01:02:18;;;;;;;;;;;15.70;99.90;;;;;;5121580;27;20033;-76
2022/08/19 01:04:43;;;;;;;;;;;15.70;99.90;;;;;;5100784;28;19927;-76
2022/08/19 01:07:09;;;;;;;;;;;15.70;99.90;;;;;;5126465;27;19920;-76
2022/08/19 01:09:35;;;;;;;;;;;15.70;99.90;;;;;;5080337;28;19924;-76
2022/08/19 01:12:00;;;;;;;;;;;15.70;99.90;;;;;;5113503;28;19920;-76
2022/08/19 01:14:26;;;;;;;;;;;15.70;99.90;;;;;;5098394;28;20252;-76
2022/08/19 01:16:54;;;;;;;;;;;15.70;99.90;;;;;;5115510;28;19930;-76
2022/08/19 01:19:28;;;;;;;;;;;15.70;99.90;;;;;;5110514;28;19919;-76
2022/08/19 01:22:02;;;;;;;;;;;15.70;99.90;;;;;;5097851;28;20271;-76
2022/08/19 01:24:28;;;;;;;;;;;15.70;99.90;;;;;;5078747;28;19931;-76
2022/08/19 01:26:54;;;;;;;;;;;15.60;99.90;;;;;;5112995;28;19920;-76
2022/08/19 01:29:20;;;;;;;;;;;15.70;99.90;;;;;;5108703;28;19944;-76
2022/08/19 01:31:45;;;;;;;;;;;15.70;99.90;;;;;;5097714;28;20011;-76
2022/08/19 01:34:11;;;;;;;;;;;15.70;99.90;;;;;;5147533;27;20282;-76
2022/08/19 01:36:48;;;;;;;;;;;15.70;99.90;;;;;;5085458;28;19920;-76
2022/08/19 01:39:17;;;;;;;;;;;15.70;99.90;;;;;;5105340;28;19920;-76
2022/08/19 01:41:43;;;;;;;;;;;15.60;99.90;;;;;;5086632;28;20344;-76
2022/08/19 01:44:09;;;;;;;;;;;15.60;99.90;;;;;;5111635;27;19927;-76
2022/08/19 01:46:35;;;;;;;;;;;15.50;99.90;;;;;;5094956;28;19982;-76
2022/08/19 01:49:01;;;;;;;;;;;15.40;99.90;;;;;;5111770;28;20439;-77
2022/08/19 01:51:27;;;;;;;;;;;15.40;99.90;;;;;;5086004;28;19927;-76
2022/08/19 01:53:52;;;;;;;;;;;15.30;99.90;;;;;;5094814;28;19920;-76
2022/08/19 01:56:18;;;;;;;;;;;15.30;99.90;;;;;;5128958;27;19927;-76
2022/08/19 01:58:55;;;;;;;;;;;15.30;99.90;;;;;;5097354;28;20374;-76
2022/08/19 02:01:21;;;;;;;;;;;15.30;99.90;;;;;;5121230;27;19994;-76
2022/08/19 02:03:47;;;;;;;;;;;15.20;99.90;;;;;;5098202;28;20308;-76
2022/08/19 02:06:12;;;;;;;;;;;15.20;99.90;;;;;;5112082;28;19920;-76
2022/08/19 02:08:38;;;;;;;;;;;15.20;99.90;;;;;;5129358;27;20359;-76
2022/08/19 02:11:04;;;;;;;;;;;15.20;99.90;;;;;;5097922;28;19920;-76
2022/08/19 02:13:30;;;;;;;;;;;15.20;99.90;;;;;;5114362;28;19989;-76
2022/08/19 02:15:55;;;;;;;;;;;15.20;99.90;;;;;;5099895;28;19920;-80
2022/08/19 02:18:21;;;;;;;;;;;15.20;99.90;;;;;;5089742;28;19945;-76
2022/08/19 02:20:47;;;;;;;;;;;15.20;99.90;;;;;;5081544;28;19942;-76
2022/08/19 02:23:13;;;;;;;;;;;15.20;99.90;;;;;;5093845;28;19927;-76
2022/08/19 02:25:38;;;;;;;;;;;15.20;99.90;;;;;;5085126;28;19932;-77
2022/08/19 02:28:04;;;;;;;;;;;15.20;99.90;;;;;;5090861;28;20259;-76
2022/08/19 02:30:32;;;;;;;;;;;15.20;99.90;;;;;;5127630;27;19920;-76
2022/08/19 02:32:57;;;;;;;;;;;15.10;99.90;;;;;;5137456;27;19959;-76
2022/08/19 02:35:23;;;;;;;;;;;15.10;99.90;;;;;;5101885;28;19958;-76
2022/08/19 02:40:34;;;;;;;;;;;15.10;99.90;;;;;;5093849;28;19926;-76
2022/08/19 02:43:04;;;;;;;;;;;15.20;99.90;;;;;;5094670;28;19920;-79
2022/08/19 02:45:38;;;;;;;;;;;15.10;99.90;;;;;;5128261;27;19920;-76
2022/08/19 02:48:04;;;;;;;;;;;15.20;99.90;;;;;;5107401;28;19920;-77
2022/08/19 02:50:30;;;;;;;;;;;15.20;99.90;;;;;;5100382;28;19920;-76
2022/08/19 02:52:56;;;;;;;;;;;15.20;99.90;;;;;;5110064;28;19920;-76
2022/08/19 02:55:22;;;;;;;;;;;15.20;99.90;;;;;;5127245;27;19924;-76
2022/08/19 02:57:47;;;;;;;;;;;15.20;99.90;;;;;;5119713;27;19927;-76
2022/08/19 03:00:13;;;;;;;;;;;15.20;99.90;;;;;;5128398;27;20301;-77
2022/08/19 03:02:39;;;;;;;;;;;15.20;99.90;;;;;;5121018;27;19919;-76
2022/08/19 03:05:05;;;;;;;;;;;15.20;99.90;;;;;;5147823;27;20266;-77
2022/08/19 03:07:31;;;;;;;;;;;15.20;99.90;;;;;;5113123;28;20010;-77
2022/08/19 03:09:56;;;;;;;;;;;15.20;99.90;;;;;;5093938;28;20011;-76
2022/08/19 03:12:22;;;;;;;;;;;15.10;99.90;;;;;;5091494;28;19978;-77
2022/08/19 03:14:48;;;;;;;;;;;15.10;99.90;;;;;;5098467;28;19927;-76
2022/08/19 03:17:13;;;;;;;;;;;15.10;99.90;;;;;;5091425;28;19945;-77
2022/08/19 03:19:39;;;;;;;;;;;15.10;99.90;;;;;;5094742;28;19926;-76
2022/08/19 03:22:04;;;;;;;;;;;15.10;99.90;;;;;;5147491;27;20368;-77
2022/08/19 03:24:31;;;;;;;;;;;15.10;99.90;;;;;;5100527;28;19939;-76
2022/08/19 03:26:57;;;;;;;;;;;15.10;99.90;;;;;;5106678;28;20004;-76
2022/08/19 03:29:23;;;;;;;;;;;15.10;99.90;;;;;;5084736;28;19924;-77
2022/08/19 03:31:51;;;;;;;;;;;15.10;99.90;;;;;;5117570;27;20007;-77
2022/08/19 03:34:21;;;;;;;;;;;15.10;99.90;;;;;;5111047;28;20362;-77
2022/08/19 03:36:47;;;;;;;;;;;15.00;99.90;;;;;;5105244;28;19959;-76
2022/08/19 03:39:14;;;;;;;;;;;15.00;99.90;;;;;;5109864;28;20024;-76
2022/08/19 03:41:41;;;;;;;;;;;15.00;99.90;;;;;;5094152;28;19920;-77
2022/08/19 03:44:08;;;;;;;;;;;15.00;99.90;;;;;;5092624;28;19920;-78
2022/08/19 03:46:34;;;;;;;;;;;15.00;99.90;;;;;;5092848;28;20014;-76
2022/08/19 03:49:02;;;;;;;;;;;15.00;99.90;;;;;;5092121;28;19920;-77
2022/08/19 03:51:30;;;;;;;;;;;15.00;99.90;;;;;;5097211;28;19929;-76
2022/08/19 03:53:56;;;;;;;;;;;15.00;99.90;;;;;;5097588;28;19920;-76
2022/08/19 03:56:22;;;;;;;;;;;15.00;99.90;;;;;;5063881;28;19972;-76
2022/08/19 03:58:48;;;;;;;;;;;15.00;99.90;;;;;;5102485;28;19955;-77
2022/08/19 04:01:17;;;;;;;;;;;15.00;99.90;;;;;;5143263;27;19979;-77
2022/08/19 04:03:45;;;;;;;;;;;15.00;99.90;;;;;;5058801;28;20422;-76
2022/08/19 04:06:12;;;;;;;;;;;15.00;99.90;;;;;;5075040;28;19920;-77
2022/08/19 04:08:39;;;;;;;;;;;15.00;99.90;;;;;;5093208;28;19953;-76
2022/08/19 04:11:12;;;;;;;;;;;15.00;99.90;;;;;;5092060;28;19943;-77
2022/08/19 04:13:38;;;;;;;;;;;15.00;99.90;;;;;;5093950;28;19920;-77
2022/08/19 04:16:04;;;;;;;;;;;15.00;99.90;;;;;;5146847;27;20014;-76
2022/08/19 04:18:30;;;;;;;;;;;15.00;99.90;;;;;;5085748;28;20459;-77
2022/08/19 04:20:56;;;;;;;;;;;15.00;99.90;;;;;;5112929;28;19919;-76
2022/08/19 04:23:22;;;;;;;;;;;15.00;99.90;;;;;;5097732;28;19924;-77
2022/08/19 04:25:48;;;;;;;;;;;15.10;99.90;;;;;;5090610;28;19927;-77
2022/08/19 04:28:14;;;;;;;;;;;15.10;99.90;;;;;;5107580;28;19921;-77
2022/08/19 04:30:41;;;;;;;;;;;15.10;99.90;;;;;;5109069;28;20393;-76
2022/08/19 04:33:07;;;;;;;;;;;15.10;99.90;;;;;;5095366;28;19920;-77
2022/08/19 04:35:37;;;;;;;;;;;15.10;99.90;;;;;;5109852;28;19934;-77
2022/08/19 04:38:02;;;;;;;;;;;15.10;99.90;;;;;;5111781;28;19968;-76
2022/08/19 04:43:15;;;;;;;;;;;15.10;99.90;;;;;;5093283;28;19924;-82
2022/08/19 04:45:43;;;;;;;;;;;15.10;99.90;;;;;;5127606;27;20375;-77
2022/08/19 04:48:08;;;;;;;;;;;15.20;99.90;;;;;;5108788;28;19920;-77
2022/08/19 04:50:34;;;;;;;;;;;15.20;99.90;;;;;;5091489;28;20417;-77
2022/08/19 04:52:59;;;;;;;;;;;15.20;99.90;;;;;;5115262;28;19920;-77
2022/08/19 04:55:25;;;;;;;;;;;15.10;99.90;;;;;;5095261;28;19945;-77
2022/08/19 04:57:51;;;;;;;;;;;15.20;99.90;;;;;;5110616;28;20357;-77
2022/08/19 05:00:16;;;;;;;;;;;15.20;99.90;;;;;;5108801;28;19932;-77
2022/08/19 05:02:42;;;;;;;;;;;15.20;99.90;;;;;;5109004;28;19927;-77
2022/08/19 05:05:08;;;;;;;;;;;15.20;99.90;;;;;;5091931;28;20287;-77
2022/08/19 05:07:33;;;;;;;;;;;15.30;99.90;;;;;;5092681;28;19994;-77
2022/08/19 05:09:59;;;;;;;;;;;15.40;99.90;;;;;;5125389;28;19928;-77
2022/08/19 05:12:25;;;;;;;;;;;15.40;99.90;;;;;;5091670;28;19954;-76
2022/08/19 05:14:51;;;;;;;;;;;15.40;99.90;;;;;;5125382;27;19920;-77
2022/08/19 05:17:17;;;;;;;;;;;15.50;99.90;;;;;;5111319;28;20330;-77
2022/08/19 05:22:35;;;;;;;;;;;15.50;99.90;;;;;;5114741;27;19977;-77
2022/08/19 05:25:02;;;;;;;;;;;15.50;99.90;;;;;;5111315;28;19935;-77
2022/08/19 05:27:28;;;;;;;;;;;15.50;99.90;;;;;;5113837;28;19923;-76
2022/08/19 05:29:53;;;;;;;;;;;15.60;99.90;;;;;;5094978;28;19926;-75
2022/08/19 05:32:19;;;;;;;;;;;15.60;99.90;;;;;;5097523;28;20003;-75
2022/08/19 05:34:44;;;;;;;;;;;15.60;99.90;;;;;;5103247;28;19922;-77
2022/08/19 05:37:10;;;;;;;;;;;15.70;99.90;;;;;;5095242;28;19920;-75
2022/08/19 05:39:37;;;;;;;;;;;15.80;99.90;;;;;;5094925;28;19927;-75
2022/08/19 05:42:05;;;;;;;;;;;15.80;99.90;;;;;;5094927;28;19924;-75
2022/08/19 05:44:31;;;;;;;;;;;15.90;99.90;;;;;;5078950;28;19920;-76
2022/08/19 05:46:59;;;;;;;;;;;16.00;99.90;;;;;;5128087;27;20275;-77
2022/08/19 05:49:25;;;;;;;;;;;16.00;99.90;;;;;;5093893;28;20034;-76
2022/08/19 05:51:51;;;;;;;;;;;16.00;99.90;;;;;;5095044;28;20034;-75
2022/08/19 05:54:17;;;;;;;;;;;16.10;99.90;;;;;;5074506;28;19920;-76
2022/08/19 05:56:42;;;;;;;;;;;16.20;99.90;;;;;;5112753;28;19930;-76
2022/08/19 05:59:10;;;;;;;;;;;16.20;99.90;;;;;;5115651;28;19964;-79
2022/08/19 06:01:40;;;;;;;;;;;16.30;99.90;;;;;;5087632;28;19998;-79
2022/08/19 06:04:06;;;;;;;;;;;16.40;99.90;;;;;;5111210;28;19919;-79
2022/08/19 06:06:33;;;;;;;;;;;16.50;99.90;;;;;;5098038;28;20066;-80
2022/08/19 06:09:06;;;;;;;;;;;16.60;99.90;;;;;;5111135;28;20400;-77
2022/08/19 06:11:37;;;;;;;;;;;16.80;99.90;;;;;;5094596;28;19920;-77
2022/08/19 06:14:04;;;;;;;;;;;16.90;99.90;;;;;;5081840;28;20014;-76
2022/08/19 06:16:31;;;;;;;;;;;17.00;99.90;;;;;;5089093;28;19926;-77
2022/08/19 06:18:59;;;;;;;;;;;17.10;99.90;;;;;;5098653;28;19939;-78
2022/08/19 06:21:27;;;;;;;;;;;17.20;99.90;;;;;;5108257;28;20015;-78
2022/08/19 06:23:53;;;;;;;;;;;17.30;99.90;;;;;;5112480;28;19966;-77
2022/08/19 06:26:19;;;;;;;;;;;17.40;99.90;;;;;;5094815;28;19967;-77
2022/08/19 06:28:48;;;;;;;;;;;17.50;99.90;;;;;;5075382;28;19982;-84
2022/08/19 06:31:15;;;;;;;;;;;17.60;99.90;;;;;;5081354;28;19924;-83
2022/08/19 06:33:42;;;;;;;;;;;17.70;99.90;;;;;;5110456;28;19985;-84
2022/08/19 06:36:08;;;;;;;;;;;17.80;99.90;;;;;;5102114;28;19931;-90
2022/08/19 06:38:34;;;;;;;;;;;17.80;99.90;;;;;;5111217;28;19920;-86
2022/08/19 06:41:03;;;;;;;;;;;17.90;99.90;;;;;;5114603;28;19920;-87
2022/08/19 06:43:29;;;;;;;;;;;18.00;99.90;;;;;;5097630;28;20418;-88
2022/08/19 06:45:54;;;;;;;;;;;18.00;99.90;;;;;;5112105;28;19982;-88
2022/08/19 06:48:20;;;;;;;;;;;18.10;99.90;;;;;;5093832;28;19985;-89
2022/08/19 06:50:47;;;;;;;;;;;18.20;99.90;;;;;;5095218;28;19920;-86
2022/08/19 06:53:12;;;;;;;;;;;18.30;99.90;;;;;;5086244;28;19927;-87
2022/08/19 06:55:39;;;;;;;;;;;18.30;99.90;;;;;;5059338;28;19927;-89
2022/08/19 06:58:04;;;;;;;;;;;18.40;99.90;;;;;;5091498;28;20351;-90
2022/08/19 07:00:30;;;;;;;;;;;18.40;99.90;;;;;;5096626;28;19920;-89
2022/08/19 07:02:55;;;;;;;;;;;18.50;99.90;;;;;;5077287;28;19920;-85
2022/08/19 07:05:21;;;;;;;;;;;18.60;99.90;;;;;;5093621;28;19924;-86
2022/08/19 07:07:47;;;;;;;;;;;18.70;99.90;;;;;;5084009;28;20363;-90
2022/08/19 07:10:12;;;;;;;;;;;18.70;99.90;;;;;;5097854;28;19927;-88
2022/08/19 07:12:38;;;;;;;;;;;18.80;99.90;;;;;;5072105;28;19920;-88
2022/08/19 07:15:05;;;;;;;;;;;18.90;99.90;;;;;;5094141;28;19920;-89
2022/08/19 07:17:30;;;;;;;;;;;18.90;99.90;;;;;;5092910;28;19966;-85
2022/08/19 07:19:56;;;;;;;;;;;19.00;99.90;;;;;;5110190;28;19920;-90
2022/08/19 07:22:22;;;;;;;;;;;19.20;99.90;;;;;;5086776;28;19932;-91
2022/08/19 07:24:48;;;;;;;;;;;19.30;99.90;;;;;;5091886;28;19921;-92
2022/08/19 07:27:14;;;;;;;;;;;19.30;99.90;;;;;;5042351;28;19920;-90
2022/08/19 07:29:39;;;;;;;;;;;19.40;99.90;;;;;;5087886;28;19928;-91
2022/08/19 07:32:05;;;;;;;;;;;19.50;99.90;;;;;;5081559;28;20057;-91
2022/08/19 07:34:34;;;;;;;;;;;19.60;99.90;;;;;;5081920;28;20375;-89
2022/08/19 07:36:59;;;;;;;;;;;19.60;99.90;;;;;;5086429;28;19960;-90
2022/08/19 07:39:27;;;;;;;;;;;19.70;99.90;;;;;;5107054;28;19939;-89
2022/08/19 07:41:54;;;;;;;;;;;19.80;99.90;;;;;;5081850;28;19928;-89
2022/08/19 07:44:20;;;;;;;;;;;19.80;99.90;;;;;;5077354;28;19925;-90
2022/08/19 07:46:48;;;;;;;;;;;19.90;99.90;;;;;;5093136;28;19920;-89
2022/08/19 07:49:18;;;;;;;;;;;20.10;99.90;;;;;;5111331;27;19931;-90
2022/08/19 07:51:45;;;;;;;;;;;20.20;99.90;;;;;;5081130;28;19920;-90
2022/08/19 07:54:11;;;;;;;;;;;20.30;99.90;;;;;;5078921;28;20378;-92
2022/08/19 07:56:37;;;;;;;;;;;20.30;99.90;;;;;;5127687;27;19920;-92
2022/08/19 07:59:03;;;;;;;;;;;20.50;99.90;;;;;;5117997;27;19920;-87
2022/08/19 08:01:29;;;;;;;;;;;20.60;99.90;;;;;;5047343;28;19931;-86
2022/08/19 08:09:26;;;;;;;;;;;20.90;99.90;;;;;;5088142;28;19919;-84
2022/08/19 08:11:57;;;;;;;;;;;21.00;99.90;;;;;;5095793;28;19920;-85
2022/08/19 08:14:24;;;;;;;;;;;21.10;99.90;;;;;;5113126;28;19923;-92
2022/08/19 08:16:50;;;;;;;;;;;21.20;99.90;;;;;;5096023;28;19920;-93
2022/08/19 08:19:20;;;;;;;;;;;21.30;99.90;;;;;;5105784;28;20002;-85
2022/08/19 08:21:47;;;;;;;;;;;21.40;99.90;;;;;;5092903;28;19920;-83
2022/08/19 08:24:12;;;;;;;;;;;21.50;99.90;;;;;;5098589;28;19924;-82
2022/08/19 08:26:39;;;;;;;;;;;21.60;99.90;;;;;;5108600;28;20304;-85
2022/08/19 08:29:07;;;;;;;;;;;21.70;99.90;;;;;;5091256;28;19939;-84
2022/08/19 08:31:33;;;;;;;;;;;21.80;99.90;;;;;;5091372;28;19958;-84
2022/08/19 08:33:59;;;;;;;;;;;21.90;99.90;;;;;;5091131;28;19932;-86
2022/08/19 08:36:25;;;;;;;;;;;22.00;99.90;;;;;;5097538;28;19920;-85
2022/08/19 08:38:52;;;;;;;;;;;22.20;99.90;;;;;;5096046;28;20011;-85
2022/08/19 08:41:20;;;;;;;;;;;22.30;99.90;;;;;;5106559;28;20007;-89
2022/08/19 08:43:47;;;;;;;;;;;22.30;99.90;;;;;;5088733;28;19920;-87
2022/08/19 08:46:45;;;;;;;;;;;22.40;99.90;;;;;;5075895;28;19920;-88
2022/08/19 08:49:24;;;;;;;;;;;22.50;99.90;;;;;;5124859;27;19920;-88
2022/08/19 08:51:59;;;;;;;;;;;22.50;99.90;;;;;;5087202;28;20643;-87
2022/08/19 08:54:28;;;;;;;;;;;22.40;99.90;;;;;;5124422;27;20338;-88
2022/08/19 08:56:54;;;;;;;;;;;22.40;99.90;;;;;;5074429;28;20346;-90
2022/08/19 08:59:27;;;;;;;;;;;22.40;99.90;;;;;;5073708;28;20022;-94
2022/08/19 09:01:53;;;;;;;;;;;22.50;99.90;;;;;;5119356;27;20355;-90
2022/08/19 09:04:19;;;;;;;;;;;22.50;99.90;;;;;;5128180;27;20015;-90
2022/08/19 09:07:04;;;;;;;;;;;22.70;99.90;;;;;;5093248;28;19978;-83
2022/08/19 09:09:34;;;;;;;;;;;22.80;99.90;;;;;;5093897;28;19982;-88
2022/08/19 09:12:19;;;;;;;;;;;22.90;99.90;;;;;;5109899;28;19949;-83
2022/08/19 09:14:50;;;;;;;;;;;23.00;99.90;;;;;;5099844;27;19920;-88
2022/08/19 09:17:16;;;;;;;;;;;23.10;99.90;;;;;;5072648;28;19931;-85
2022/08/19 09:19:49;;;;;;;;;;;23.10;99.90;;;;;;5124201;27;19924;-85
2022/08/19 09:22:15;;;;;;;;;;;23.10;99.90;;;;;;5089838;28;19932;-89
2022/08/19 09:24:41;;;;;;;;;;;23.20;99.90;;;;;;5116536;27;19945;-87
2022/08/19 09:27:06;;;;;;;;;;;23.30;99.90;;;;;;5096465;28;19924;-90
2022/08/19 09:29:32;;;;;;;;;;;23.40;99.90;;;;;;5076265;28;19934;-87
2022/08/19 09:31:57;;;;;;;;;;;23.60;99.90;;;;;;5092661;28;19924;-89
2022/08/19 09:34:23;;;;;;;;;;;23.80;99.90;;;;;;5109904;28;19927;-88
2022/08/19 09:36:53;;;;;;;;;;;24.00;99.90;;;;;;5075818;28;20466;-88
2022/08/19 09:39:18;;;;;;;;;;;24.10;99.90;;;;;;5109432;27;19925;-88
2022/08/19 09:41:44;;;;;;;;;;;24.10;99.90;;;;;;5083800;28;19931;-92
2022/08/19 09:44:11;;;;;;;;;;;24.10;99.90;;;;;;5109405;28;20069;-89
2022/08/19 09:46:37;;;;;;;;;;;24.00;99.90;;;;;;5093095;28;20027;-79
2022/08/19 09:49:05;;;;;;;;;;;23.90;99.90;;;;;;5096670;28;19924;-79
2022/08/19 09:51:31;;;;;;;;;;;23.80;99.90;;;;;;5077837;28;19924;-78
2022/08/19 09:54:04;;;;;;;;;;;23.90;99.90;;;;;;5101761;28;19924;-76
2022/08/19 09:56:30;;;;;;;;;;;24.00;99.90;;;;;;5092760;28;19976;-76
2022/08/19 09:58:57;;;;;;;;;;;24.20;99.90;;;;;;5125384;27;20283;-77
2022/08/19 10:01:25;;;;;;;;;;;24.50;99.90;;;;;;5108554;28;19920;-78
2022/08/19 10:03:53;;;;;;;;;;;24.60;99.90;;;;;;5091812;28;19972;-78
2022/08/19 10:06:19;;;;;;;;;;;24.70;99.90;;;;;;5091185;28;20279;-77
2022/08/19 10:08:45;;;;;;;;;;;24.60;99.90;;;;;;5091560;28;19924;-77
2022/08/19 10:11:11;;;;;;;;;;;24.60;99.90;;;;;;5092220;28;19931;-78
2022/08/19 10:13:36;;;;;;;;;;;24.60;99.90;;;;;;5089392;28;19959;-77
2022/08/19 10:16:04;;;;;;;;;;;24.70;99.90;;;;;;5092314;28;20232;-78
2022/08/19 10:18:33;;;;;;;;;;;24.80;99.90;;;;;;5090472;28;19981;-78
2022/08/19 10:21:05;;;;;;;;;;;24.90;99.90;;;;;;5093780;28;19985;-78
2022/08/19 10:23:30;;;;;;;;;;;25.20;99.90;;;;;;5117213;27;19947;-78
2022/08/19 10:25:59;;;;;;;;;;;25.40;99.90;;;;;;5087870;28;19921;-78
2022/08/19 10:28:24;;;;;;;;;;;25.50;99.90;;;;;;5117192;27;20010;-78
2022/08/19 10:30:50;;;;;;;;;;;25.60;99.90;;;;;;5103362;28;20063;-78
2022/08/19 10:33:16;;;;;;;;;;;25.60;99.90;;;;;;5078457;28;19969;-78
2022/08/19 10:35:41;;;;;;;;;;;25.60;99.90;;;;;;5092311;28;19977;-78
2022/08/19 10:38:07;;;;;;;;;;;25.90;99.90;;;;;;5106913;28;19924;-78
2022/08/19 10:40:32;;;;;;;;;;;25.90;99.90;;;;;;5091958;28;20448;-77
2022/08/19 10:42:58;;;;;;;;;;;25.80;99.90;;;;;;5073650;28;19924;-78
2022/08/19 10:45:25;;;;;;;;;;;25.80;99.90;;;;;;5092609;28;19924;-77
2022/08/19 10:47:52;;;;;;;;;;;25.70;99.90;;;;;;5100292;28;19920;-77
2022/08/19 10:53:04;;;;;;;;;;;25.60;99.90;;;;;;5100730;28;19973;-78
2022/08/19 10:58:14;;;;;;;;;;;25.30;99.90;;;;;;5110998;28;20039;-76
2022/08/19 11:00:40;;;;;;;;;;;25.10;99.90;;;;;;5111353;28;19926;-77
2022/08/19 11:03:06;;;;;;;;;;;25.00;99.90;;;;;;5071067;28;19999;-76
2022/08/19 11:05:31;;;;;;;;;;;24.90;99.90;;;;;;5123610;27;19977;-76
2022/08/19 11:07:57;;;;;;;;;;;24.90;99.90;;;;;;5090073;28;20328;-76
2022/08/19 11:10:23;;;;;;;;;;;25.00;99.90;;;;;;5089917;28;19924;-76
2022/08/19 11:12:52;;;;;;;;;;;25.10;99.90;;;;;;5110785;27;19924;-75
2022/08/19 11:15:18;;;;;;;;;;;25.10;99.90;;;;;;5087715;28;20011;-74
2022/08/19 11:17:44;;;;;;;;;;;25.10;99.90;;;;;;5101188;28;20050;-76
2022/08/19 11:20:10;;;;;;;;;;;25.20;99.90;;;;;;5091282;28;20038;-75
2022/08/19 11:22:36;;;;;;;;;;;25.40;99.90;;;;;;5091840;28;19920;-75
2022/08/19 11:25:02;;;;;;;;;;;25.50;99.90;;;;;;5090996;28;19944;-76
2022/08/19 11:27:28;;;;;;;;;;;25.60;99.90;;;;;;5092249;28;19931;-76
2022/08/19 11:29:54;;;;;;;;;;;25.80;99.90;;;;;;5073290;28;19924;-76
2022/08/19 11:32:20;;;;;;;;;;;25.90;99.90;;;;;;5093209;28;19969;-76
2022/08/19 11:34:45;;;;;;;;;;;26.00;99.90;;;;;;5099845;28;19934;-76
2022/08/19 11:37:11;;;;;;;;;;;25.80;99.90;;;;;;5095327;28;19924;-76
2022/08/19 11:39:36;;;;;;;;;;;25.80;99.90;;;;;;5071814;28;19975;-76
2022/08/19 11:42:54;;;;;;;;;;;25.90;99.90;;;;;;5094438;28;19931;-78
2022/08/19 11:44:49;;;;;;;;;;;25.80;99.90;;;;;;5124478;27;19932;-83
2022/08/19 11:47:14;;;;;;;;;;;25.70;99.90;;;;;;5082761;28;19924;-84
2022/08/19 11:49:40;;;;;;;;;;;25.80;99.90;;;;;;5093660;28;19932;-84
2022/08/19 11:52:05;;;;;;;;;;;25.90;99.90;;;;;;5098266;28;19926;-84
2022/08/19 11:54:31;;;;;;;;;;;26.10;99.90;;;;;;5123686;27;20553;-83
2022/08/19 11:56:57;;;;;;;;;;;26.20;99.90;;;;;;5106832;28;19963;-85
2022/08/19 11:59:23;;;;;;;;;;;26.30;99.90;;;;;;5074172;28;20375;-81
2022/08/19 12:01:49;;;;;;;;;;;26.10;99.90;;;;;;5105209;28;20517;-81
2022/08/19 12:04:14;;;;;;;;;;;26.10;99.90;;;;;;5084541;28;20003;-81
2022/08/19 12:06:40;;;;;;;;;;;25.90;99.90;;;;;;5088716;28;19920;-80
2022/08/19 12:09:08;;;;;;;;;;;25.80;99.90;;;;;;5099907;28;20019;-81
2022/08/19 12:11:34;;;;;;;;;;;25.70;99.90;;;;;;5089727;28;19924;-82
2022/08/19 12:13:59;;;;;;;;;;;25.40;99.90;;;;;;5105540;28;19993;-81
2022/08/19 12:16:27;;;;;;;;;;;25.20;99.90;;;;;;5087125;28;19923;-81
2022/08/19 12:18:53;;;;;;;;;;;25.00;99.90;;;;;;5107753;28;20058;-81
2022/08/19 12:21:21;;;;;;;;;;;25.00;99.90;;;;;;5087046;28;19936;-82
2022/08/19 12:23:48;;;;;;;;;;;24.90;99.90;;;;;;5093699;28;19975;-82
2022/08/19 12:26:14;;;;;;;;;;;24.90;99.90;;;;;;5092979;28;19920;-82
2022/08/19 12:28:41;;;;;;;;;;;24.90;99.90;;;;;;5091140;28;20320;-82
2022/08/19 12:31:06;;;;;;;;;;;24.90;99.90;;;;;;5081778;28;19982;-84
2022/08/19 12:33:32;;;;;;;;;;;25.00;99.90;;;;;;5075516;28;20104;-85
2022/08/19 12:36:02;;;;;;;;;;;25.20;99.90;;;;;;5084939;28;19920;-84
2022/08/19 12:38:28;;;;;;;;;;;25.10;99.90;;;;;;5067167;28;20342;-82
2022/08/19 12:40:54;;;;;;;;;;;25.10;99.90;;;;;;5070665;28;19946;-86
2022/08/19 12:43:20;;;;;;;;;;;25.10;99.90;;;;;;5069316;28;19920;-87
2022/08/19 12:45:45;;;;;;;;;;;25.00;99.90;;;;;;5083140;28;19931;-90
2022/08/19 12:48:11;;;;;;;;;;;24.90;99.90;;;;;;5056102;28;19924;-83
2022/08/19 12:50:41;;;;;;;;;;;24.90;99.90;;;;;;5090652;28;20287;-85
2022/08/19 12:53:07;;;;;;;;;;;25.00;99.90;;;;;;5105083;28;19920;-89
2022/08/19 12:55:33;;;;;;;;;;;25.20;99.90;;;;;;5096485;28;19969;-89
2022/08/19 12:58:01;;;;;;;;;;;25.20;99.90;;;;;;5079103;28;19920;-84
2022/08/19 13:00:27;;;;;;;;;;;25.10;99.90;;;;;;5087443;28;19925;-79
2022/08/19 13:02:53;;;;;;;;;;;25.10;99.90;;;;;;5089546;28;20061;-80
2022/08/19 13:05:23;;;;;;;;;;;25.20;99.90;;;;;;5105297;27;19969;-80
2022/08/19 13:07:49;;;;;;;;;;;25.30;99.90;;;;;;5096316;28;20375;-81
2022/08/19 13:10:17;;;;;;;;;;;25.50;99.90;;;;;;5095815;28;19924;-81
2022/08/19 13:12:43;;;;;;;;;;;25.50;99.90;;;;;;5075967;28;19963;-81
2022/08/19 13:15:10;;;;;;;;;;;25.40;99.90;;;;;;5095943;28;19939;-82
2022/08/19 13:17:36;;;;;;;;;;;25.60;99.90;;;;;;5072508;28;19931;-82
2022/08/19 13:20:02;;;;;;;;;;;25.80;99.90;;;;;;5100467;28;19928;-84
2022/08/19 13:22:28;;;;;;;;;;;26.10;99.90;;;;;;5126670;27;19931;-85
2022/08/19 13:24:53;;;;;;;;;;;26.90;99.90;;;;;;5075444;28;19924;-85
2022/08/19 13:27:19;;;;;;;;;;;27.10;99.90;;;;;;5075780;28;20247;-84
2022/08/19 13:35:14;;;;;;;;;;;27.10;99.90;;;;;;5111979;28;19967;-85
2022/08/19 13:37:43;;;;;;;;;;;26.90;99.90;;;;;;5093955;28;19924;-83
2022/08/19 13:40:12;;;;;;;;;;;27.20;99.90;;;;;;5125628;27;19920;-84
2022/08/19 13:42:38;;;;;;;;;;;27.60;99.90;;;;;;5094046;28;20350;-86
2022/08/19 13:45:06;;;;;;;;;;;28.20;99.90;;;;;;5089154;28;19924;-87
2022/08/19 13:47:34;;;;;;;;;;;28.00;99.90;;;;;;5084306;28;19920;-86
2022/08/19 13:50:00;;;;;;;;;;;28.10;99.90;;;;;;5080009;28;19920;-86
2022/08/19 13:52:25;;;;;;;;;;;27.90;99.90;;;;;;5060978;28;20279;-84
2022/08/19 13:54:51;;;;;;;;;;;27.80;99.90;;;;;;5089128;28;19931;-84
2022/08/19 13:57:16;;;;;;;;;;;27.90;99.90;;;;;;5093104;28;19923;-84
2022/08/19 13:59:42;;;;;;;;;;;28.00;99.90;;;;;;5079147;28;20444;-86
2022/08/19 14:02:08;;;;;;;;;;;28.00;99.90;;;;;;5098132;28;19947;-85
2022/08/19 14:04:33;;;;;;;;;;;27.90;99.90;;;;;;5110727;27;19924;-84
2022/08/19 14:06:59;;;;;;;;;;;27.40;99.90;;;;;;5118847;27;19935;-85
2022/08/19 14:09:25;;;;;;;;;;;27.40;99.90;;;;;;5110358;28;20048;-86
2022/08/19 14:11:51;;;;;;;;;;;28.00;99.90;;;;;;5124486;27;19973;-85
2022/08/19 14:14:16;;;;;;;;;;;28.30;99.90;;;;;;5093080;28;19927;-84
2022/08/19 14:16:42;;;;;;;;;;;28.40;99.90;;;;;;5079642;28;20011;-87
2022/08/19 14:19:08;;;;;;;;;;;28.10;99.90;;;;;;5096702;28;20313;-85
2022/08/19 14:21:34;;;;;;;;;;;27.60;99.90;;;;;;5092103;28;19924;-84
2022/08/19 14:23:59;;;;;;;;;;;27.30;99.90;;;;;;5093000;28;19999;-85
2022/08/19 14:26:25;;;;;;;;;;;27.10;99.90;;;;;;5108415;28;20007;-85
2022/08/19 14:28:52;;;;;;;;;;;26.90;99.90;;;;;;5077384;28;19923;-85
2022/08/19 14:31:18;;;;;;;;;;;27.30;99.90;;;;;;5089127;28;19927;-86
2022/08/19 14:33:48;;;;;;;;;;;28.20;99.90;;;;;;5108337;28;19931;-86
2022/08/19 14:36:14;;;;;;;;;;;29.30;99.90;;;;;;5106793;28;19920;-84
2022/08/19 14:38:40;;;;;;;;;;;29.90;99.90;;;;;;5125028;27;20034;-84